createdAt,value
2017-09-07T00:00:51.397Z,13.21
2017-09-07T00:01:51.430Z,13.17
2017-09-07T00:02:51.504Z,13.2
2017-09-07T00:03:51.470Z,13.2
2017-09-07T00:04:51.526Z,13.17
2017-09-07T00:05:51.560Z,13.11
2017-09-07T00:06:51.593Z,13.11
2017-09-07T00:07:51.320Z,13.1
2017-09-07T00:08:51.627Z,13.09
2017-09-07T00:09:51.658Z,13.07
2017-09-07T00:10:51.692Z,13.13
2017-09-07T00:11:51.731Z,13.16
2017-09-07T00:12:51.430Z,13.24
2017-09-07T00:13:51.729Z,13.2
2017-09-07T00:14:51.852Z,13.19
2017-09-07T00:15:51.262Z,13.21
2017-09-07T00:16:51.570Z,13.2
2017-09-07T00:17:51.944Z,13.21
2017-09-07T00:18:51.613Z,13.16
2017-09-07T00:19:51.666Z,13.17
2017-09-07T00:20:52.325Z,13.14
2017-09-07T00:21:52.047Z,13.21
2017-09-07T00:22:52.420Z,13.14
2017-09-07T00:23:53.079Z,13.17
2017-09-07T00:24:52.496Z,13.17
2017-09-07T00:25:53.169Z,13.14
2017-09-07T00:26:53.176Z,13.13
2017-09-07T00:27:53.226Z,13.14
2017-09-07T00:28:52.663Z,13.14
2017-09-07T00:29:53.361Z,13.19
2017-09-07T00:30:53.371Z,13.21
2017-09-07T00:31:54.053Z,13.19
2017-09-07T00:32:54.060Z,13.16
2017-09-07T00:33:54.067Z,13.16
2017-09-07T00:34:54.670Z,13.09
2017-09-07T00:35:54.697Z,13.16
2017-09-07T00:36:54.751Z,13.14
2017-09-07T00:37:54.755Z,13.09
2017-09-07T00:38:55.431Z,13.13
2017-09-07T00:39:55.461Z,13.06
2017-09-07T00:40:55.166Z,13.11
2017-09-07T00:41:55.487Z,12.92
2017-09-07T00:42:56.124Z,12.89
2017-09-07T00:43:56.191Z,12.95
2017-09-07T00:44:56.187Z,12.95
2017-09-07T00:45:56.538Z,12.86
2017-09-07T00:46:56.868Z,12.8
2017-09-07T00:47:56.560Z,12.81
2017-09-07T00:48:56.930Z,12.74
2017-09-07T00:49:56.627Z,12.65
2017-09-07T00:50:56.967Z,12.7
2017-09-07T00:51:56.721Z,12.73
2017-09-07T00:52:56.757Z,12.71
2017-09-07T00:53:57.067Z,12.7
2017-09-07T00:54:57.101Z,12.61
2017-09-07T00:55:56.803Z,12.62
2017-09-07T00:56:57.170Z,12.53
2017-09-07T00:57:56.873Z,12.56
2017-09-07T00:58:56.853Z,12.47
2017-09-07T00:59:57.527Z,12.51
2017-09-07T01:00:57.568Z,12.47
2017-09-07T01:01:57.588Z,12.47
2017-09-07T01:02:57.632Z,12.51
2017-09-07T01:03:57.661Z,12.48
2017-09-07T01:04:57.701Z,12.43
2017-09-07T01:05:57.724Z,12.48
2017-09-07T01:06:57.406Z,12.43
2017-09-07T01:07:57.432Z,12.43
2017-09-07T01:08:57.804Z,12.38
2017-09-07T01:09:57.830Z,12.37
2017-09-07T01:10:57.858Z,12.36
2017-09-07T01:11:57.869Z,12.33
2017-09-07T01:12:58.214Z,12.34
2017-09-07T01:13:58.228Z,12.38
2017-09-07T01:14:58.597Z,12.29
2017-09-07T01:15:58.932Z,12.31
2017-09-07T01:16:58.960Z,12.34
2017-09-07T01:17:58.688Z,12.34
2017-09-07T01:18:58.470Z,12.31
2017-09-07T01:19:59.235Z,12.33
2017-09-07T01:20:59.574Z,12.31
2017-09-07T01:21:59.581Z,12.25
2017-09-07T01:22:59.610Z,12.25
2017-09-07T01:23:59.670Z,12.04
2017-09-07T01:24:59.661Z,12.28
2017-09-07T01:25:59.710Z,12.22
2017-09-07T01:26:59.734Z,12.19
2017-09-07T01:27:59.766Z,12.25
2017-09-07T01:28:59.775Z,12.34
2017-09-07T01:29:59.972Z,12.28
2017-09-07T01:30:59.840Z,12.33
2017-09-07T01:31:59.568Z,12.28
2017-09-07T01:32:59.603Z,12.31
2017-09-07T01:33:59.625Z,12.2
2017-09-07T01:34:59.770Z,12.34
2017-09-07T01:36:00.004Z,12.26
2017-09-07T01:37:00.044Z,12.19
2017-09-07T01:37:59.831Z,12.19
2017-09-07T01:38:59.821Z,12.22
2017-09-07T01:39:59.829Z,12.07
2017-09-07T01:40:59.877Z,12.22
2017-09-07T01:42:00.198Z,12.11
2017-09-07T01:43:00.269Z,12.05
2017-09-07T01:43:59.973Z,12.05
2017-09-07T01:45:00.006Z,12.04
2017-09-07T01:46:00.341Z,12
2017-09-07T01:47:00.363Z,12.07
2017-09-07T01:47:59.795Z,12.05
2017-09-07T01:49:00.133Z,12.08
2017-09-07T01:50:00.485Z,12.05
2017-09-07T01:51:00.543Z,12.1
2017-09-07T01:52:00.533Z,12.1
2017-09-07T01:53:00.907Z,12.08
2017-09-07T01:54:01.244Z,12.05
2017-09-07T01:55:00.969Z,12.07
2017-09-07T01:56:01.644Z,12.07
2017-09-07T01:57:01.597Z,12.04
2017-09-07T01:58:01.335Z,12.04
2017-09-07T01:59:01.689Z,12.03
2017-09-07T02:00:01.403Z,11.98
2017-09-07T02:01:01.411Z,12.01
2017-09-07T02:02:01.810Z,12.03
2017-09-07T02:03:02.312Z,12.05
2017-09-07T02:04:02.567Z,12.01
2017-09-07T02:05:02.385Z,11.89
2017-09-07T02:06:02.346Z,11.94
2017-09-07T02:07:02.384Z,11.95
2017-09-07T02:08:01.773Z,11.91
2017-09-07T02:09:02.403Z,11.89
2017-09-07T02:10:02.417Z,11.97
2017-09-07T02:11:03.107Z,11.94
2017-09-07T02:12:02.836Z,11.89
2017-09-07T02:13:03.193Z,11.95
2017-09-07T02:14:02.913Z,11.86
2017-09-07T02:15:03.114Z,12.01
2017-09-07T02:16:03.350Z,11.88
2017-09-07T02:17:03.352Z,11.86
2017-09-07T02:18:03.390Z,11.88
2017-09-07T02:19:03.113Z,11.81
2017-09-07T02:20:03.157Z,11.97
2017-09-07T02:21:03.825Z,11.97
2017-09-07T02:22:03.571Z,11.98
2017-09-07T02:23:03.582Z,11.89
2017-09-07T02:24:03.963Z,11.94
2017-09-07T02:25:04.037Z,11.89
2017-09-07T02:26:03.714Z,11.81
2017-09-07T02:27:04.107Z,11.84
2017-09-07T02:28:04.117Z,11.88
2017-09-07T02:29:04.110Z,11.82
2017-09-07T02:30:03.881Z,11.82
2017-09-07T02:31:04.243Z,11.84
2017-09-07T02:32:04.585Z,11.89
2017-09-07T02:33:04.880Z,11.81
2017-09-07T02:34:04.906Z,11.89
2017-09-07T02:35:05.031Z,11.89
2017-09-07T02:36:04.346Z,11.89
2017-09-07T02:37:05.026Z,11.86
2017-09-07T02:38:05.023Z,11.94
2017-09-07T02:39:05.387Z,11.85
2017-09-07T02:40:05.217Z,11.89
2017-09-07T02:41:05.980Z,11.82
2017-09-07T02:42:05.605Z,11.88
2017-09-07T02:43:05.951Z,11.84
2017-09-07T02:44:06.045Z,11.95
2017-09-07T02:45:06.718Z,11.84
2017-09-07T02:46:06.393Z,11.82
2017-09-07T02:47:06.836Z,11.76
2017-09-07T02:48:06.892Z,11.91
2017-09-07T02:49:06.901Z,11.85
2017-09-07T02:50:07.021Z,11.82
2017-09-07T02:51:06.987Z,11.84
2017-09-07T02:52:07.013Z,11.84
2017-09-07T02:53:07.080Z,11.76
2017-09-07T02:54:06.773Z,11.81
2017-09-07T02:55:07.209Z,11.85
2017-09-07T02:56:07.181Z,11.81
2017-09-07T02:57:07.150Z,11.78
2017-09-07T02:58:07.228Z,11.79
2017-09-07T02:59:06.903Z,11.84
2017-09-07T03:00:07.333Z,11.82
2017-09-07T03:01:06.985Z,11.82
2017-09-07T03:02:07.657Z,11.84
2017-09-07T03:03:08.020Z,11.81
2017-09-07T03:04:08.010Z,11.85
2017-09-07T03:05:08.044Z,11.84
2017-09-07T03:06:08.113Z,11.94
2017-09-07T03:07:07.789Z,11.89
2017-09-07T03:08:08.184Z,11.86
2017-09-07T03:09:08.183Z,11.89
2017-09-07T03:10:07.659Z,11.91
2017-09-07T03:11:08.007Z,11.94
2017-09-07T03:12:08.374Z,11.91
2017-09-07T03:13:08.720Z,11.85
2017-09-07T03:14:08.761Z,11.94
2017-09-07T03:15:09.678Z,11.94
2017-09-07T03:16:09.447Z,11.95
2017-09-07T03:17:09.250Z,12.01
2017-09-07T03:18:10.244Z,11.94
2017-09-07T03:19:10.263Z,11.94
2017-09-07T03:20:10.588Z,11.95
2017-09-07T03:21:10.349Z,12.01
2017-09-07T03:22:10.085Z,11.94
2017-09-07T03:23:10.415Z,11.94
2017-09-07T03:24:10.791Z,11.89
2017-09-07T03:25:10.480Z,11.94
2017-09-07T03:26:10.568Z,11.89
2017-09-07T03:27:11.194Z,12
2017-09-07T03:28:11.229Z,12.04
2017-09-07T03:29:10.924Z,12.01
2017-09-07T03:30:11.207Z,12.01
2017-09-07T03:31:11.277Z,12.04
2017-09-07T03:32:11.879Z,12.03
2017-09-07T03:33:11.908Z,12.05
2017-09-07T03:34:11.921Z,12.15
2017-09-07T03:35:12.251Z,12.16
2017-09-07T03:36:12.610Z,12.08
2017-09-07T03:37:12.304Z,12.11
2017-09-07T03:38:12.381Z,12.08
2017-09-07T03:39:12.696Z,12.22
2017-09-07T03:40:12.550Z,12.23
2017-09-07T03:41:12.765Z,12.2
2017-09-07T03:42:12.791Z,12.26
2017-09-07T03:43:12.511Z,12.29
2017-09-07T03:44:13.149Z,12.26
2017-09-07T03:45:13.312Z,12.28
2017-09-07T03:46:12.911Z,12.19
2017-09-07T03:47:13.232Z,12.13
2017-09-07T03:48:13.300Z,12.05
2017-09-07T03:49:13.619Z,12.03
2017-09-07T03:50:13.483Z,11.91
2017-09-07T03:51:14.129Z,11.94
2017-09-07T03:52:14.178Z,11.85
2017-09-07T03:53:14.222Z,11.78
2017-09-07T03:54:14.548Z,11.82
2017-09-07T03:55:14.738Z,11.88
2017-09-07T03:56:14.629Z,11.88
2017-09-07T03:57:14.631Z,11.82
2017-09-07T03:58:14.688Z,11.82
2017-09-07T03:59:14.712Z,11.82
2017-09-07T04:00:14.309Z,11.76
2017-09-07T04:01:15.190Z,11.76
2017-09-07T04:02:15.250Z,11.64
2017-09-07T04:03:14.711Z,11.68
2017-09-07T04:04:15.384Z,11.82
2017-09-07T04:05:15.425Z,11.76
2017-09-07T04:06:15.493Z,11.79
2017-09-07T04:07:15.470Z,11.78
2017-09-07T04:08:15.186Z,11.7
2017-09-07T04:09:16.175Z,11.66
2017-09-07T04:10:16.201Z,11.68
2017-09-07T04:11:16.217Z,11.75
2017-09-07T04:12:15.956Z,11.68
2017-09-07T04:13:16.286Z,11.64
2017-09-07T04:14:16.685Z,11.63
2017-09-07T04:15:16.691Z,11.73
2017-09-07T04:16:16.723Z,11.7
2017-09-07T04:17:16.740Z,11.71
2017-09-07T04:18:16.811Z,11.82
2017-09-07T04:19:16.815Z,11.79
2017-09-07T04:20:17.153Z,11.86
2017-09-07T04:21:17.163Z,11.85
2017-09-07T04:22:17.210Z,11.84
2017-09-07T04:23:17.246Z,11.88
2017-09-07T04:24:16.961Z,11.91
2017-09-07T04:25:17.404Z,12.01
2017-09-07T04:26:17.431Z,12.1
2017-09-07T04:27:17.734Z,12.08
2017-09-07T04:28:18.102Z,12.13
2017-09-07T04:29:17.496Z,12.33
2017-09-07T04:30:18.004Z,12.31
2017-09-07T04:31:18.221Z,12.36
2017-09-07T04:32:17.952Z,12.23
2017-09-07T04:33:18.333Z,12.29
2017-09-07T04:34:18.362Z,12.36
2017-09-07T04:35:18.800Z,12.36
2017-09-07T04:36:18.710Z,12.34
2017-09-07T04:37:18.410Z,12.36
2017-09-07T04:38:18.772Z,12.4
2017-09-07T04:39:18.505Z,12.48
2017-09-07T04:40:18.928Z,12.47
2017-09-07T04:41:18.901Z,12.43
2017-09-07T04:42:18.563Z,12.48
2017-09-07T04:43:18.938Z,12.53
2017-09-07T04:44:18.974Z,12.59
2017-09-07T04:45:18.655Z,12.58
2017-09-07T04:46:19.015Z,12.63
2017-09-07T04:47:18.717Z,12.63
2017-09-07T04:48:19.421Z,12.66
2017-09-07T04:49:19.431Z,12.66
2017-09-07T04:50:19.481Z,12.74
2017-09-07T04:51:19.516Z,12.77
2017-09-07T04:52:19.215Z,12.83
2017-09-07T04:53:19.578Z,12.71
2017-09-07T04:54:19.668Z,12.74
2017-09-07T04:55:19.709Z,12.86
2017-09-07T04:56:20.118Z,12.84
2017-09-07T04:57:20.792Z,12.83
2017-09-07T04:58:20.820Z,12.99
2017-09-07T04:59:20.267Z,12.95
2017-09-07T05:00:20.898Z,12.96
2017-09-07T05:01:21.558Z,12.92
2017-09-07T05:02:21.737Z,12.99
2017-09-07T05:03:21.676Z,13.06
2017-09-07T05:04:21.629Z,13.03
2017-09-07T05:05:21.684Z,12.99
2017-09-07T05:06:21.695Z,13.07
2017-09-07T05:07:21.720Z,13.09
2017-09-07T05:08:21.751Z,13.07
2017-09-07T05:09:21.812Z,13.07
2017-09-07T05:10:22.110Z,13.1
2017-09-07T05:11:21.841Z,13.16
2017-09-07T05:12:21.839Z,13.1
2017-09-07T05:13:22.220Z,13.09
2017-09-07T05:14:22.251Z,13.16
2017-09-07T05:15:22.264Z,13.17
2017-09-07T05:16:21.997Z,13.16
2017-09-07T05:17:22.654Z,13.17
2017-09-07T05:18:22.371Z,13.21
2017-09-07T05:19:23.021Z,13.16
2017-09-07T05:20:22.762Z,13.17
2017-09-07T05:21:23.140Z,13.24
2017-09-07T05:22:22.845Z,13.2
2017-09-07T05:23:23.233Z,13.24
2017-09-07T05:24:23.240Z,13.28
2017-09-07T05:25:23.282Z,13.24
2017-09-07T05:26:23.000Z,13.24
2017-09-07T05:27:23.338Z,13.36
2017-09-07T05:28:23.413Z,13.35
2017-09-07T05:29:23.452Z,13.25
2017-09-07T05:30:23.449Z,13.31
2017-09-07T05:31:23.613Z,13.31
2017-09-07T05:32:23.217Z,13.35
2017-09-07T05:33:23.197Z,13.47
2017-09-07T05:34:23.548Z,13.48
2017-09-07T05:35:23.957Z,13.48
2017-09-07T05:36:24.289Z,13.51
2017-09-07T05:37:24.382Z,13.55
2017-09-07T05:38:24.401Z,13.53
2017-09-07T05:39:24.430Z,13.6
2017-09-07T05:40:24.813Z,13.72
2017-09-07T05:41:25.464Z,13.75
2017-09-07T05:42:25.517Z,13.76
2017-09-07T05:43:25.208Z,13.84
2017-09-07T05:44:25.217Z,13.86
2017-09-07T05:45:25.579Z,13.93
2017-09-07T05:46:25.743Z,13.9
2017-09-07T05:47:25.794Z,13.86
2017-09-07T05:48:25.779Z,13.9
2017-09-07T05:49:25.839Z,13.94
2017-09-07T05:50:25.849Z,13.88
2017-09-07T05:51:25.708Z,13.91
2017-09-07T05:52:26.034Z,13.87
2017-09-07T05:53:26.046Z,14.03
2017-09-07T05:54:26.381Z,14.05
2017-09-07T05:55:27.052Z,13.99
2017-09-07T05:56:27.084Z,14.06
2017-09-07T05:57:26.784Z,14.16
2017-09-07T05:58:27.211Z,14.19
2017-09-07T05:59:27.240Z,14.42
2017-09-07T06:00:27.244Z,14.6
2017-09-07T06:01:26.925Z,14.63
2017-09-07T06:02:27.558Z,14.64
2017-09-07T06:03:27.590Z,14.51
2017-09-07T06:04:27.617Z,14.49
2017-09-07T06:05:27.376Z,14.45
2017-09-07T06:06:27.747Z,14.45
2017-09-07T06:07:27.719Z,14.45
2017-09-07T06:08:27.110Z,14.45
2017-09-07T06:09:28.118Z,14.51
2017-09-07T06:10:28.107Z,14.48
2017-09-07T06:11:27.841Z,14.59
2017-09-07T06:12:28.175Z,14.74
2017-09-07T06:13:27.915Z,14.69
2017-09-07T06:14:28.239Z,14.8
2017-09-07T06:15:28.315Z,14.83
2017-09-07T06:16:28.321Z,14.8
2017-09-07T06:17:28.685Z,14.83
2017-09-07T06:18:28.720Z,14.79
2017-09-07T06:19:28.122Z,14.83
2017-09-07T06:20:28.534Z,14.93
2017-09-07T06:21:29.256Z,14.98
2017-09-07T06:22:29.281Z,15.01
2017-09-07T06:23:29.311Z,15.01
2017-09-07T06:24:28.714Z,15.13
2017-09-07T06:25:29.373Z,15.51
2017-09-07T06:26:29.709Z,15.77
2017-09-07T06:27:29.443Z,15.71
2017-09-07T06:28:30.117Z,15.7
2017-09-07T06:29:29.515Z,15.62
2017-09-07T06:30:30.487Z,15.58
2017-09-07T06:31:30.513Z,15.51
2017-09-07T06:32:30.548Z,15.37
2017-09-07T06:33:30.292Z,15.41
2017-09-07T06:34:30.710Z,15.41
2017-09-07T06:35:30.457Z,15.38
2017-09-07T06:36:30.750Z,15.34
2017-09-07T06:37:30.447Z,15.25
2017-09-07T06:38:30.798Z,15.34
2017-09-07T06:39:31.151Z,15.23
2017-09-07T06:40:31.212Z,15.22
2017-09-07T06:41:31.219Z,15.34
2017-09-07T06:42:30.922Z,15.47
2017-09-07T06:43:31.287Z,15.88
2017-09-07T06:44:30.657Z,15.99
2017-09-07T06:45:31.046Z,16.17
2017-09-07T06:46:31.421Z,16.37
2017-09-07T06:47:31.450Z,17.3
2017-09-07T06:48:31.517Z,18.56
2017-09-07T06:49:32.161Z,19.97
2017-09-07T06:50:32.488Z,21.04
2017-09-07T06:51:32.940Z,21.7
2017-09-07T06:52:32.884Z,21.7
2017-09-07T06:53:32.938Z,21.31
2017-09-07T06:54:32.684Z,20.91
2017-09-07T06:55:33.712Z,20.51
2017-09-07T06:56:33.536Z,20.22
2017-09-07T06:57:33.424Z,19.85
2017-09-07T06:58:34.120Z,19.52
2017-09-07T06:59:33.524Z,18.91
2017-09-07T07:00:34.479Z,18.42
2017-09-07T07:01:34.545Z,18.05
2017-09-07T07:02:34.651Z,17.57
2017-09-07T07:03:34.625Z,17.3
2017-09-07T07:04:34.627Z,16.95
2017-09-07T07:05:34.345Z,16.81
2017-09-07T07:06:34.701Z,16.62
2017-09-07T07:07:34.813Z,16.4
2017-09-07T07:08:35.131Z,16.42
2017-09-07T07:09:35.223Z,16.42
2017-09-07T07:10:35.248Z,16.44
2017-09-07T07:11:35.024Z,16.44
2017-09-07T07:12:35.087Z,16.44
2017-09-07T07:13:35.736Z,16.42
2017-09-07T07:14:36.099Z,16.45
2017-09-07T07:15:36.164Z,16.48
2017-09-07T07:16:35.847Z,16.52
2017-09-07T07:17:36.480Z,16.63
2017-09-07T07:18:36.518Z,16.67
2017-09-07T07:19:36.570Z,16.72
2017-09-07T07:20:36.578Z,16.8
2017-09-07T07:21:36.635Z,16.91
2017-09-07T07:22:36.342Z,17.31
2017-09-07T07:23:36.683Z,17.58
2017-09-07T07:24:37.028Z,17.87
2017-09-07T07:25:37.026Z,17.84
2017-09-07T07:26:37.721Z,17.66
2017-09-07T07:27:37.744Z,17.58
2017-09-07T07:28:37.827Z,17.6
2017-09-07T07:29:37.831Z,17.42
2017-09-07T07:30:37.845Z,17.5
2017-09-07T07:31:37.909Z,17.49
2017-09-07T07:32:37.614Z,17.47
2017-09-07T07:33:37.649Z,17.68
2017-09-07T07:34:38.316Z,17.92
2017-09-07T07:35:38.610Z,17.98
2017-09-07T07:36:38.384Z,17.86
2017-09-07T07:37:38.754Z,17.96
2017-09-07T07:38:38.428Z,17.94
2017-09-07T07:39:38.818Z,18.03
2017-09-07T07:40:39.094Z,17.98
2017-09-07T07:41:38.812Z,17.69
2017-09-07T07:42:38.919Z,17.58
2017-09-07T07:43:38.948Z,17.38
2017-09-07T07:44:38.970Z,17.36
2017-09-07T07:45:38.671Z,17.18
2017-09-07T07:46:39.059Z,17.09
2017-09-07T07:47:39.044Z,16.92
2017-09-07T07:48:39.124Z,16.91
2017-09-07T07:49:39.160Z,16.8
2017-09-07T07:50:38.872Z,16.74
2017-09-07T07:51:39.211Z,16.65
2017-09-07T07:52:39.839Z,16.51
2017-09-07T07:53:39.230Z,16.45
2017-09-07T07:54:39.579Z,16.47
2017-09-07T07:55:40.302Z,16.51
2017-09-07T07:56:40.367Z,16.54
2017-09-07T07:57:40.750Z,16.69
2017-09-07T07:58:40.760Z,16.66
2017-09-07T07:59:40.809Z,16.72
2017-09-07T08:00:40.230Z,16.69
2017-09-07T08:01:40.849Z,16.63
2017-09-07T08:02:41.250Z,16.55
2017-09-07T08:03:41.257Z,16.54
2017-09-07T08:04:41.313Z,16.69
2017-09-07T08:05:41.016Z,16.7
2017-09-07T08:06:41.351Z,16.92
2017-09-07T08:07:41.121Z,17
2017-09-07T08:08:41.421Z,17.32
2017-09-07T08:09:41.149Z,17.46
2017-09-07T08:10:41.588Z,17.57
2017-09-07T08:11:41.526Z,17.84
2017-09-07T08:12:41.587Z,17.96
2017-09-07T08:13:41.257Z,18.11
2017-09-07T08:14:41.317Z,18.19
2017-09-07T08:15:41.667Z,18.35
2017-09-07T08:16:41.386Z,18.44
2017-09-07T08:17:41.432Z,18.56
2017-09-07T08:18:41.476Z,18.56
2017-09-07T08:19:41.767Z,18.57
2017-09-07T08:20:42.412Z,18.54
2017-09-07T08:21:42.472Z,18.53
2017-09-07T08:22:42.921Z,18.45
2017-09-07T08:23:43.000Z,18.41
2017-09-07T08:24:43.025Z,18.39
2017-09-07T08:25:42.761Z,18.42
2017-09-07T08:26:42.857Z,18.32
2017-09-07T08:27:42.790Z,18.27
2017-09-07T08:28:43.217Z,18.49
2017-09-07T08:29:43.534Z,18.56
2017-09-07T08:30:43.243Z,18.87
2017-09-07T08:31:43.915Z,19.05
2017-09-07T08:32:43.895Z,18.84
2017-09-07T08:33:44.481Z,18.91
2017-09-07T08:34:44.517Z,18.87
2017-09-07T08:35:44.545Z,18.79
2017-09-07T08:36:44.606Z,18.68
2017-09-07T08:37:44.322Z,18.57
2017-09-07T08:38:44.987Z,18.68
2017-09-07T08:39:45.016Z,18.39
2017-09-07T08:40:45.050Z,18.35
2017-09-07T08:41:45.084Z,18.39
2017-09-07T08:42:45.124Z,18.42
2017-09-07T08:43:45.161Z,18.57
2017-09-07T08:44:44.585Z,18.61
2017-09-07T08:45:45.341Z,18.66
2017-09-07T08:46:45.352Z,18.74
2017-09-07T08:47:45.422Z,19.1
2017-09-07T08:48:45.748Z,19.37
2017-09-07T08:49:45.453Z,19.5
2017-09-07T08:50:45.859Z,19.49
2017-09-07T08:51:45.544Z,19.2
2017-09-07T08:52:45.555Z,19.02
2017-09-07T08:53:46.220Z,18.87
2017-09-07T08:54:46.257Z,18.82
2017-09-07T08:55:45.998Z,19.2
2017-09-07T08:56:45.998Z,19.72
2017-09-07T08:57:46.360Z,20.32
2017-09-07T08:58:46.380Z,20.57
2017-09-07T08:59:46.424Z,20.38
2017-09-07T09:00:46.450Z,20.01
2017-09-07T09:01:46.525Z,19.68
2017-09-07T09:02:46.509Z,19.45
2017-09-07T09:03:46.521Z,19.35
2017-09-07T09:04:46.878Z,19.5
2017-09-07T09:05:46.591Z,19.64
2017-09-07T09:06:47.285Z,19.74
2017-09-07T09:07:47.318Z,19.7
2017-09-07T09:08:47.390Z,19.49
2017-09-07T09:09:47.393Z,19.32
2017-09-07T09:10:47.743Z,19.25
2017-09-07T09:11:47.821Z,19.2
2017-09-07T09:12:47.834Z,19.31
2017-09-07T09:13:47.871Z,19.4
2017-09-07T09:14:47.615Z,19.63
2017-09-07T09:15:47.922Z,19.67
2017-09-07T09:16:48.039Z,19.75
2017-09-07T09:17:48.419Z,19.82
2017-09-07T09:18:48.459Z,19.9
2017-09-07T09:19:48.185Z,20.4
2017-09-07T09:20:47.888Z,21.23
2017-09-07T09:21:48.244Z,21.8
2017-09-07T09:22:48.900Z,22.61
2017-09-07T09:23:48.921Z,23.25
2017-09-07T09:24:48.965Z,22.86
2017-09-07T09:25:48.983Z,22.33
2017-09-07T09:26:48.687Z,22
2017-09-07T09:27:48.713Z,22.24
2017-09-07T09:28:49.421Z,22.51
2017-09-07T09:29:49.148Z,23.57
2017-09-07T09:30:50.006Z,24.42
2017-09-07T09:31:49.524Z,24.52
2017-09-07T09:32:49.886Z,24.69
2017-09-07T09:33:49.288Z,25.26
2017-09-07T09:34:49.941Z,24.64
2017-09-07T09:35:49.980Z,23.84
2017-09-07T09:36:49.713Z,22.92
2017-09-07T09:37:50.050Z,22.31
2017-09-07T09:38:50.129Z,21.74
2017-09-07T09:39:49.906Z,21.43
2017-09-07T09:40:49.855Z,21.28
2017-09-07T09:41:49.912Z,21.92
2017-09-07T09:42:49.957Z,22.27
2017-09-07T09:43:49.965Z,22.41
2017-09-07T09:44:50.473Z,23.66
2017-09-07T09:45:50.033Z,25.45
2017-09-07T09:46:50.121Z,26.94
2017-09-07T09:47:50.846Z,28.28
2017-09-07T09:48:50.591Z,29.14
2017-09-07T09:49:51.408Z,29.66
2017-09-07T09:50:50.452Z,30.03
2017-09-07T09:51:50.728Z,30.02
2017-09-07T09:52:50.510Z,30.52
2017-09-07T09:53:51.137Z,31.01
2017-09-07T09:54:51.500Z,31.01
2017-09-07T09:55:51.918Z,31.01
2017-09-07T09:56:51.638Z,30.37
2017-09-07T09:57:51.947Z,29.33
2017-09-07T09:58:51.990Z,28.97
2017-09-07T09:59:52.062Z,28.49
2017-09-07T10:00:51.786Z,28.72
2017-09-07T10:01:52.449Z,29.03
2017-09-07T10:02:52.478Z,28.72
2017-09-07T10:03:52.216Z,27.81
2017-09-07T10:04:52.964Z,26.61
2017-09-07T10:05:52.972Z,25.54
2017-09-07T10:06:53.093Z,24.63
2017-09-07T10:07:53.052Z,24.3
2017-09-07T10:08:53.066Z,24.83
2017-09-07T10:09:53.130Z,25.02
2017-09-07T10:10:52.547Z,24.85
2017-09-07T10:11:53.264Z,24.54
2017-09-07T10:12:53.272Z,24.34
2017-09-07T10:13:53.316Z,24.66
2017-09-07T10:14:53.481Z,25.19
2017-09-07T10:15:53.556Z,25.26
2017-09-07T10:16:53.508Z,24.89
2017-09-07T10:17:53.166Z,24.44
2017-09-07T10:18:52.878Z,24.04
2017-09-07T10:19:53.242Z,23.5
2017-09-07T10:20:53.907Z,23.18
2017-09-07T10:21:53.995Z,22.84
2017-09-07T10:22:53.725Z,22.48
2017-09-07T10:23:54.071Z,22.26
2017-09-07T10:24:54.095Z,21.85
2017-09-07T10:25:53.852Z,21.52
2017-09-07T10:26:54.274Z,21.19
2017-09-07T10:27:53.927Z,21.27
2017-09-07T10:28:54.308Z,21.21
2017-09-07T10:29:54.330Z,21.04
2017-09-07T10:30:54.370Z,21.01
2017-09-07T10:31:54.770Z,20.88
2017-09-07T10:32:54.505Z,20.72
2017-09-07T10:33:54.910Z,20.44
2017-09-07T10:34:54.661Z,20.41
2017-09-07T10:35:54.654Z,20.2
2017-09-07T10:36:55.295Z,20.08
2017-09-07T10:37:55.356Z,19.83
2017-09-07T10:38:55.370Z,19.72
2017-09-07T10:39:55.413Z,19.64
2017-09-07T10:40:55.137Z,19.47
2017-09-07T10:41:55.479Z,19.37
2017-09-07T10:42:55.540Z,19.28
2017-09-07T10:43:55.568Z,19.27
2017-09-07T10:44:55.589Z,19.16
2017-09-07T10:45:55.768Z,19.25
2017-09-07T10:46:55.804Z,19.42
2017-09-07T10:47:56.171Z,19.75
2017-09-07T10:48:55.877Z,19.9
2017-09-07T10:49:55.620Z,20.25
2017-09-07T10:50:56.397Z,20.42
2017-09-07T10:51:56.761Z,20.72
2017-09-07T10:52:56.821Z,21.01
2017-09-07T10:53:56.807Z,21.27
2017-09-07T10:54:56.887Z,21.4
2017-09-07T10:55:57.445Z,21.7
2017-09-07T10:56:56.610Z,21.89
2017-09-07T10:57:57.295Z,21.96
2017-09-07T10:58:57.035Z,21.94
2017-09-07T10:59:57.369Z,21.97
2017-09-07T11:00:57.444Z,21.92
2017-09-07T11:01:57.429Z,21.92
2017-09-07T11:02:56.933Z,21.92
2017-09-07T11:03:57.899Z,21.83
2017-09-07T11:04:57.609Z,21.67
2017-09-07T11:05:57.650Z,21.68
2017-09-07T11:06:57.986Z,21.61
2017-09-07T11:07:57.994Z,21.33
2017-09-07T11:08:59.056Z,21.08
2017-09-07T11:09:58.410Z,20.51
2017-09-07T11:10:58.095Z,20.12
2017-09-07T11:11:59.114Z,19.86
2017-09-07T11:12:58.217Z,19.71
2017-09-07T11:13:58.892Z,19.37
2017-09-07T11:14:58.882Z,19.19
2017-09-07T11:15:58.949Z,18.87
2017-09-07T11:16:58.660Z,18.79
2017-09-07T11:17:59.637Z,18.6
2017-09-07T11:18:59.389Z,18.5
2017-09-07T11:19:59.093Z,18.42
2017-09-07T11:20:59.173Z,18.29
2017-09-07T11:21:59.231Z,18.23
2017-09-07T11:22:59.892Z,18.11
2017-09-07T11:23:59.921Z,18.05
2017-09-07T11:24:59.623Z,18.05
2017-09-07T11:25:59.992Z,18.14
2017-09-07T11:26:59.722Z,18.14
2017-09-07T11:27:59.759Z,18.21
2017-09-07T11:29:00.142Z,18.23
2017-09-07T11:30:00.169Z,18.23
2017-09-07T11:31:00.481Z,18.34
2017-09-07T11:32:00.849Z,18.35
2017-09-07T11:33:00.910Z,18.38
2017-09-07T11:34:00.991Z,18.35
2017-09-07T11:35:01.019Z,18.29
2017-09-07T11:36:01.038Z,18.23
2017-09-07T11:37:01.362Z,18.16
2017-09-07T11:38:01.784Z,18.11
2017-09-07T11:39:01.804Z,17.99
2017-09-07T11:40:01.545Z,18.02
2017-09-07T11:41:02.302Z,17.99
2017-09-07T11:42:02.277Z,17.98
2017-09-07T11:43:02.679Z,17.96
2017-09-07T11:44:02.647Z,17.84
2017-09-07T11:45:02.718Z,17.88
2017-09-07T11:46:03.071Z,17.96
2017-09-07T11:47:03.073Z,18.19
2017-09-07T11:48:03.430Z,18.47
2017-09-07T11:49:03.459Z,18.69
2017-09-07T11:50:04.120Z,18.9
2017-09-07T11:51:03.822Z,18.99
2017-09-07T11:52:03.587Z,19.07
2017-09-07T11:53:03.930Z,19.13
2017-09-07T11:54:03.946Z,19.23
2017-09-07T11:55:04.681Z,19.25
2017-09-07T11:56:04.613Z,19.38
2017-09-07T11:57:04.649Z,19.57
2017-09-07T11:58:04.392Z,19.64
2017-09-07T11:59:04.721Z,19.72
2017-09-07T12:00:04.877Z,19.64
2017-09-07T12:01:04.906Z,19.5
2017-09-07T12:02:04.595Z,19.38
2017-09-07T12:03:04.338Z,19.19
2017-09-07T12:04:04.995Z,18.97
2017-09-07T12:05:04.752Z,18.63
2017-09-07T12:06:05.057Z,18.45
2017-09-07T12:07:05.133Z,18.23
2017-09-07T12:08:05.199Z,17.96
2017-09-07T12:09:05.200Z,17.69
2017-09-07T12:10:04.940Z,17.55
2017-09-07T12:11:05.573Z,17.58
2017-09-07T12:12:05.981Z,17.77
2017-09-07T12:13:05.986Z,18.02
2017-09-07T12:14:06.720Z,18.45
2017-09-07T12:15:06.477Z,18.87
2017-09-07T12:16:06.504Z,19.13
2017-09-07T12:17:06.913Z,19.34
2017-09-07T12:18:07.322Z,19.35
2017-09-07T12:19:07.424Z,19.32
2017-09-07T12:20:07.434Z,19.28
2017-09-07T12:21:07.831Z,19.23
2017-09-07T12:22:08.208Z,19.05
2017-09-07T12:23:08.206Z,18.94
2017-09-07T12:24:08.280Z,18.86
2017-09-07T12:25:08.125Z,18.84
2017-09-07T12:26:07.686Z,18.79
2017-09-07T12:27:07.704Z,18.86
2017-09-07T12:28:08.740Z,18.86
2017-09-07T12:29:08.462Z,18.84
2017-09-07T12:30:09.146Z,18.79
2017-09-07T12:31:09.111Z,18.76
2017-09-07T12:32:08.935Z,18.69
2017-09-07T12:33:08.908Z,18.71
2017-09-07T12:34:09.062Z,18.74
2017-09-07T12:35:09.817Z,18.65
2017-09-07T12:36:09.436Z,18.59
2017-09-07T12:37:09.834Z,18.61
2017-09-07T12:38:09.542Z,18.63
2017-09-07T12:39:09.567Z,18.65
2017-09-07T12:40:09.262Z,18.69
2017-09-07T12:41:09.944Z,18.66
2017-09-07T12:42:09.356Z,18.71
2017-09-07T12:43:10.043Z,18.61
2017-09-07T12:44:10.051Z,18.57
2017-09-07T12:45:09.791Z,18.51
2017-09-07T12:46:10.133Z,18.59
2017-09-07T12:47:10.243Z,18.57
2017-09-07T12:48:10.238Z,18.54
2017-09-07T12:49:09.955Z,18.42
2017-09-07T12:50:10.305Z,18.38
2017-09-07T12:51:10.354Z,18.36
2017-09-07T12:52:09.805Z,18.36
2017-09-07T12:53:10.499Z,18.35
2017-09-07T12:54:10.857Z,18.23
2017-09-07T12:55:11.304Z,18.16
2017-09-07T12:56:11.234Z,18.13